createdAt,value
2017-06-29T00:00:59.084Z,97683.52
2017-06-29T00:03:26.995Z,97685.53
2017-06-29T00:05:55.214Z,97682.30
2017-06-29T00:08:22.887Z,97671.10
2017-06-29T00:10:50.718Z,97673.12
2017-06-29T00:13:18.876Z,97677.73
2017-06-29T00:15:46.544Z,97667.47
2017-06-29T00:18:14.210Z,97648.83
2017-06-29T00:20:41.976Z,97637.76
2017-06-29T00:23:09.464Z,97634.90
2017-06-29T00:25:36.936Z,97644.52
2017-06-29T00:28:04.423Z,97648.70
2017-06-29T00:30:32.503Z,97612.35
2017-06-29T00:33:00.784Z,97617.92
2017-06-29T00:35:28.438Z,97594.17
2017-06-29T00:37:56.250Z,97591.47
2017-06-29T00:40:23.887Z,97573.92
2017-06-29T00:42:52.167Z,97568.50
2017-06-29T00:45:19.591Z,97542.34
2017-06-29T00:47:47.474Z,97522.23
2017-06-29T00:50:15.042Z,97523.03
2017-06-29T00:52:43.215Z,97516.84
2017-06-29T00:55:11.073Z,97512.52
2017-06-29T00:57:38.845Z,97503.50
2017-06-29T01:00:06.479Z,97495.40
2017-06-29T01:02:34.315Z,97494.06
2017-06-29T01:05:02.170Z,97483.13
2017-06-29T01:07:29.896Z,97477.22
2017-06-29T01:09:57.570Z,97459.39
2017-06-29T01:12:25.766Z,97443.23
2017-06-29T01:14:53.197Z,97429.98
2017-06-29T01:17:20.922Z,97441.08
2017-06-29T01:19:48.380Z,97497.22
2017-06-29T01:22:16.157Z,97524.87
2017-06-29T01:24:43.712Z,97529.34
2017-06-29T01:27:11.171Z,97530.00
2017-06-29T01:29:38.770Z,97528.95
2017-06-29T01:32:06.226Z,97541.11
2017-06-29T01:34:33.885Z,97524.92
2017-06-29T01:37:01.512Z,97518.98
2017-06-29T01:39:28.964Z,97502.50
2017-06-29T01:41:56.979Z,97493.75
2017-06-29T01:44:24.553Z,97477.85
2017-06-29T01:46:52.285Z,97472.58
2017-06-29T01:49:20.583Z,97465.17
2017-06-29T01:51:48.139Z,97454.27
2017-06-29T01:54:15.911Z,97445.50
2017-06-29T01:56:43.398Z,97457.91
2017-06-29T01:59:10.954Z,97456.69
2017-06-29T02:01:38.631Z,97445.78
2017-06-29T02:04:06.375Z,97437.17
2017-06-29T02:06:34.899Z,97410.61
2017-06-29T02:09:03.117Z,97419.77
2017-06-29T02:11:30.947Z,97422.48
2017-06-29T02:13:58.859Z,97418.87
2017-06-29T02:16:26.327Z,97431.38
2017-06-29T02:18:53.927Z,97427.19
2017-06-29T02:21:21.346Z,97432.59
2017-06-29T02:23:49.669Z,97421.13
2017-06-29T02:26:17.142Z,97422.08
2017-06-29T02:28:44.989Z,97444.19
2017-06-29T02:31:12.788Z,97436.23
2017-06-29T02:33:40.675Z,97445.89
2017-06-29T02:36:09.150Z,97456.42
2017-06-29T02:38:36.918Z,97459.62
2017-06-29T02:41:04.891Z,97467.19
2017-06-29T02:43:32.520Z,97467.85
2017-06-29T02:45:59.963Z,97467.31
2017-06-29T02:48:27.978Z,97462.87
2017-06-29T02:50:55.957Z,97459.92
2017-06-29T02:53:23.569Z,97452.90
2017-06-29T02:55:51.887Z,97458.14
2017-06-29T02:58:19.682Z,97460.58
2017-06-29T03:00:47.627Z,97462.33
2017-06-29T03:03:15.875Z,97457.34
2017-06-29T03:05:43.547Z,97446.14
2017-06-29T03:08:11.058Z,97458.66
2017-06-29T03:10:39.150Z,97453.02
2017-06-29T03:13:07.616Z,97462.59
2017-06-29T03:15:35.447Z,97463.80
2017-06-29T03:18:03.105Z,97464.73
2017-06-29T03:20:31.593Z,97475.36
2017-06-29T03:22:59.813Z,97487.89
2017-06-29T03:25:27.528Z,97496.36
2017-06-29T03:27:55.281Z,97489.08
2017-06-29T03:30:22.727Z,97502.95
2017-06-29T03:32:50.727Z,97506.19
2017-06-29T03:35:18.799Z,97513.97
2017-06-29T03:37:46.270Z,97506.98
2017-06-29T03:40:13.716Z,97511.02
2017-06-29T03:42:41.221Z,97511.13
2017-06-29T03:45:09.555Z,97499.45
2017-06-29T03:47:37.937Z,97497.66
2017-06-29T03:50:05.699Z,97496.85
2017-06-29T03:52:33.491Z,97493.75
2017-06-29T03:55:01.040Z,97498.05
2017-06-29T03:57:28.516Z,97496.30
2017-06-29T03:59:57.204Z,97503.58
2017-06-29T04:02:25.135Z,97515.25
2017-06-29T04:04:52.693Z,97517.55
2017-06-29T04:07:20.716Z,97520.92
2017-06-29T04:09:48.434Z,97509.76
2017-06-29T04:12:16.300Z,97513.91
2017-06-29T04:14:44.024Z,97525.61
2017-06-29T04:17:11.731Z,97526.41
2017-06-29T04:19:39.199Z,97521.17
2017-06-29T04:22:07.156Z,97519.83
2017-06-29T04:24:35.030Z,97512.69
2017-06-29T04:27:03.103Z,97512.15
2017-06-29T04:29:30.872Z,97520.88
2017-06-29T04:31:58.390Z,97518.86
2017-06-29T04:34:26.170Z,97530.03
2017-06-29T04:36:54.042Z,97531.48
2017-06-29T04:39:21.926Z,97524.32
2017-06-29T04:41:50.304Z,97514.64
2017-06-29T04:44:18.359Z,97523.11
2017-06-29T04:46:45.823Z,97520.83
2017-06-29T04:49:13.711Z,97519.62
2017-06-29T04:51:41.311Z,97528.75
2017-06-29T04:54:10.036Z,97524.31
2017-06-29T04:56:37.820Z,97528.60
2017-06-29T04:59:05.355Z,97528.60
2017-06-29T05:01:33.006Z,97530.88
2017-06-29T05:04:00.434Z,97532.37
2017-06-29T05:06:28.272Z,97527.95
2017-06-29T05:08:55.864Z,97535.88
2017-06-29T05:11:23.719Z,97543.29
2017-06-29T05:13:51.567Z,97540.45
2017-06-29T05:16:19.622Z,97543.00
2017-06-29T05:18:47.193Z,97540.86
2017-06-29T05:21:14.680Z,97544.20
2017-06-29T05:23:42.444Z,97562.23
2017-06-29T05:26:10.168Z,97570.45
2017-06-29T05:28:37.750Z,97565.22
2017-06-29T05:31:05.511Z,97570.47
2017-06-29T05:33:33.785Z,97579.23
2017-06-29T05:36:01.562Z,97580.97
2017-06-29T05:38:29.327Z,97586.58
2017-06-29T05:40:57.011Z,97596.42
2017-06-29T05:43:24.539Z,97590.04
2017-06-29T05:45:52.342Z,97591.53
2017-06-29T05:48:20.272Z,97596.80
2017-06-29T05:50:48.347Z,97596.41
2017-06-29T05:53:16.122Z,97603.28
2017-06-29T05:55:43.908Z,97604.92
2017-06-29T05:58:11.523Z,97629.54
2017-06-29T06:00:39.438Z,97626.16
2017-06-29T06:03:06.964Z,97632.88
2017-06-29T06:05:35.223Z,97636.90
2017-06-29T06:08:02.660Z,97640.00
2017-06-29T06:10:30.481Z,97642.55
2017-06-29T06:12:57.998Z,97639.60
2017-06-29T06:15:25.496Z,97647.14
2017-06-29T06:17:53.478Z,97642.16
2017-06-29T06:20:21.271Z,97644.45
2017-06-29T06:22:49.397Z,97657.90
2017-06-29T06:25:17.487Z,97651.73
2017-06-29T06:27:45.236Z,97660.50
2017-06-29T06:30:13.003Z,97677.32
2017-06-29T06:32:40.473Z,97677.77
2017-06-29T06:35:07.923Z,97687.61
2017-06-29T06:37:35.686Z,97684.53
2017-06-29T06:40:03.575Z,97681.59
2017-06-29T06:42:31.848Z,97677.67
2017-06-29T06:44:59.494Z,97683.20
2017-06-29T06:47:27.574Z,97691.83
2017-06-29T06:49:55.627Z,97691.04
2017-06-29T06:52:23.755Z,97686.75
2017-06-29T06:54:52.075Z,97700.36
2017-06-29T06:57:19.881Z,97713.95
2017-06-29T06:59:47.350Z,97703.47
2017-06-29T07:02:15.106Z,97720.58
2017-06-29T07:04:42.535Z,97707.27
2017-06-29T07:07:10.384Z,97731.37
2017-06-29T07:09:38.116Z,97724.49
2017-06-29T07:12:05.736Z,97733.96
2017-06-29T07:14:33.706Z,97719.41
2017-06-29T07:17:01.967Z,97726.30
2017-06-29T07:19:29.751Z,97724.95
2017-06-29T07:21:57.513Z,97711.48
2017-06-29T07:24:25.279Z,97723.36
2017-06-29T07:26:53.328Z,97760.27
2017-06-29T07:29:21.116Z,97751.76
2017-06-29T07:31:49.675Z,97747.47
2017-06-29T07:34:17.569Z,97747.22
2017-06-29T07:36:45.356Z,97737.94
2017-06-29T07:39:13.188Z,97753.71
2017-06-29T07:41:41.493Z,97755.72
2017-06-29T07:44:08.939Z,97759.52
2017-06-29T07:46:36.709Z,97773.39
2017-06-29T07:49:04.200Z,97776.34
2017-06-29T07:51:31.927Z,97782.45
2017-06-29T07:53:59.690Z,97772.77
2017-06-29T07:56:27.738Z,97787.45
2017-06-29T07:58:55.328Z,97794.05
2017-06-29T08:01:22.827Z,97802.28
2017-06-29T08:03:51.158Z,97818.74
2017-06-29T08:06:18.831Z,97815.50
2017-06-29T08:08:46.302Z,97818.35
2017-06-29T08:11:13.850Z,97812.81
2017-06-29T08:13:42.266Z,97817.02
2017-06-29T08:16:10.227Z,97803.80
2017-06-29T08:18:37.959Z,97819.72
2017-06-29T08:21:05.579Z,97831.19
2017-06-29T08:23:33.316Z,97819.33
2017-06-29T08:26:00.746Z,97822.17
2017-06-29T08:28:28.955Z,97839.55
2017-06-29T08:30:57.501Z,97823.13
2017-06-29T08:33:25.885Z,97815.84
2017-06-29T08:35:53.851Z,97808.72
2017-06-29T08:38:21.938Z,97827.88
2017-06-29T08:40:49.687Z,97825.19
2017-06-29T08:43:17.554Z,97825.98
2017-06-29T08:45:45.965Z,97823.55
2017-06-29T08:48:13.507Z,97820.06
2017-06-29T08:50:41.341Z,97825.20
2017-06-29T08:53:09.441Z,97814.57
2017-06-29T08:55:37.544Z,97830.61
2017-06-29T08:58:05.068Z,97831.81
2017-06-29T09:00:33.672Z,97829.56
2017-06-29T09:03:01.436Z,97833.72
2017-06-29T09:05:29.235Z,97852.48
2017-06-29T09:07:56.950Z,97845.34
2017-06-29T09:10:24.763Z,97845.20
2017-06-29T09:12:52.426Z,97871.78
2017-06-29T09:15:20.154Z,97869.23
2017-06-29T09:17:48.419Z,97868.84
2017-06-29T09:20:15.853Z,97865.89
2017-06-29T09:22:43.542Z,97870.08
2017-06-29T09:25:11.074Z,97869.25
2017-06-29T09:27:38.664Z,97883.58
2017-06-29T09:30:06.377Z,97893.13
2017-06-29T09:32:34.112Z,97883.58
2017-06-29T09:35:02.803Z,97881.14
2017-06-29T09:37:30.750Z,97886.03
2017-06-29T09:39:58.218Z,97884.94
2017-06-29T09:42:25.979Z,97889.13
2017-06-29T09:44:53.779Z,97899.64
2017-06-29T09:47:21.303Z,97883.89
2017-06-29T09:49:49.082Z,97924.75
2017-06-29T09:52:16.574Z,97905.33
2017-06-29T09:54:44.188Z,97907.88
2017-06-29T09:57:11.786Z,97906.94
2017-06-29T09:59:39.239Z,97897.22
2017-06-29T10:02:07.011Z,97908.03
2017-06-29T10:04:34.478Z,97897.97
2017-06-29T10:07:01.958Z,97902.81
2017-06-29T10:09:29.491Z,97908.07
2017-06-29T10:11:57.151Z,97903.48
2017-06-29T10:14:24.841Z,97913.87
2017-06-29T10:16:52.289Z,97925.89
2017-06-29T10:19:20.094Z,97919.41
2017-06-29T10:21:47.639Z,97921.86
2017-06-29T10:24:15.079Z,97912.27
2017-06-29T10:26:42.564Z,97906.48
2017-06-29T10:29:10.066Z,97912.56
2017-06-29T10:31:37.717Z,97919.57
2017-06-29T10:34:05.448Z,97921.20
2017-06-29T10:36:33.531Z,97929.42
2017-06-29T10:39:00.983Z,97922.27
2017-06-29T10:41:28.658Z,97910.69
2017-06-29T10:43:56.219Z,97923.63
2017-06-29T10:46:23.641Z,97930.67
2017-06-29T10:48:51.191Z,97923.78
2017-06-29T10:51:19.187Z,97946.46
2017-06-29T10:53:47.027Z,97941.73
2017-06-29T10:56:14.747Z,97925.03
2017-06-29T10:58:42.401Z,97926.92
2017-06-29T11:01:09.912Z,97937.84
2017-06-29T11:03:37.371Z,97933.27
2017-06-29T11:06:04.819Z,97933.13
2017-06-29T11:08:32.286Z,97929.34
2017-06-29T11:10:59.960Z,97932.88
2017-06-29T11:13:27.831Z,97924.78
2017-06-29T11:15:55.933Z,97925.84
2017-06-29T11:18:23.599Z,97925.45
2017-06-29T11:20:51.106Z,97926.95
2017-06-29T11:23:18.639Z,97932.09
2017-06-29T11:25:46.426Z,97912.91
2017-06-29T11:28:14.166Z,97949.09
2017-06-29T11:30:41.697Z,97909.42
2017-06-29T11:33:09.942Z,97914.42
2017-06-29T11:35:37.412Z,97922.27
2017-06-29T11:38:05.444Z,97942.66
2017-06-29T11:40:33.182Z,97943.31
2017-06-29T11:43:01.227Z,97943.61
2017-06-29T11:45:28.835Z,97935.51
2017-06-29T11:47:56.622Z,97928.07
2017-06-29T11:50:24.855Z,97958.86
2017-06-29T11:52:52.306Z,97976.41
2017-06-29T11:55:19.976Z,97990.20
2017-06-29T11:57:47.540Z,97962.52
2017-06-29T12:00:15.611Z,97984.95
2017-06-29T12:02:43.347Z,98001.02
2017-06-29T12:05:11.240Z,98003.86
2017-06-29T12:07:38.915Z,98014.41
2017-06-29T12:10:06.500Z,97991.72
2017-06-29T12:12:33.972Z,98005.91
2017-06-29T12:15:01.442Z,98030.73
2017-06-29T12:17:29.074Z,97988.62
2017-06-29T12:19:56.592Z,98008.87
2017-06-29T12:22:24.102Z,98009.97
2017-06-29T12:24:51.770Z,97990.27
2017-06-29T12:27:19.495Z,97992.82
2017-06-29T12:29:47.423Z,98032.38
2017-06-29T12:32:14.924Z,98016.98
2017-06-29T12:34:42.683Z,98009.83
2017-06-29T12:37:10.479Z,98039.42
2017-06-29T12:39:38.320Z,98048.44
2017-06-29T12:42:05.759Z,98026.61
2017-06-29T12:44:33.200Z,98022.70
2017-06-29T12:47:00.818Z,98024.56
2017-06-29T12:49:29.174Z,98026.34
2017-06-29T12:51:56.939Z,98033.10
2017-06-29T12:54:24.579Z,98030.26
2017-06-29T12:56:52.863Z,98046.06
2017-06-29T12:59:20.604Z,98061.72
2017-06-29T13:01:48.614Z,98056.17
2017-06-29T13:04:16.527Z,98053.36
2017-06-29T13:06:44.447Z,98058.88
2017-06-29T13:09:12.525Z,98057.01
2017-06-29T13:11:40.347Z,98055.11
2017-06-29T13:14:08.543Z,98043.77
2017-06-29T13:16:36.040Z,98027.56
2017-06-29T13:19:04.071Z,98030.81
2017-06-29T13:21:31.704Z,98026.77
2017-06-29T13:23:59.663Z,98032.72
2017-06-29T13:26:27.294Z,98032.58
2017-06-29T13:28:55.259Z,98030.82
2017-06-29T13:31:22.918Z,98032.46
2017-06-29T13:33:51.019Z,98014.77
2017-06-29T13:36:18.779Z,98044.07
2017-06-29T13:38:46.250Z,98030.02
2017-06-29T13:41:13.990Z,98051.08
2017-06-29T13:43:41.756Z,98045.16
2017-06-29T13:46:09.602Z,98047.32
2017-06-29T13:48:37.412Z,98039.08
2017-06-29T13:51:04.955Z,98053.39
2017-06-29T13:53:32.811Z,98053.39
2017-06-29T13:56:00.797Z,98037.47
2017-06-29T13:58:28.631Z,98043.27
2017-06-29T14:00:56.424Z,98058.53
2017-06-29T14:03:24.283Z,98044.38
2017-06-29T14:05:52.667Z,98050.58
2017-06-29T14:08:21.541Z,98057.59
2017-06-29T14:10:49.732Z,98052.08
2017-06-29T14:13:17.394Z,98062.73
2017-06-29T14:15:45.098Z,98056.80
2017-06-29T14:18:12.621Z,98072.45
2017-06-29T14:20:40.212Z,98063.84
2017-06-29T14:23:08.631Z,98049.78
2017-06-29T14:25:36.535Z,98068.44
2017-06-29T14:28:04.440Z,98060.88
2017-06-29T14:30:32.406Z,98065.74
2017-06-29T14:33:00.484Z,98060.73
2017-06-29T14:35:28.407Z,98062.49
2017-06-29T14:37:55.967Z,98057.78
2017-06-29T14:40:23.733Z,98052.64
2017-06-29T14:42:51.553Z,98052.64
2017-06-29T14:45:19.262Z,98053.19
2017-06-29T14:47:47.179Z,98056.59
2017-06-29T14:50:14.692Z,98040.09
2017-06-29T14:52:42.357Z,98047.39
2017-06-29T14:55:10.155Z,98041.33
2017-06-29T14:57:37.742Z,98043.74
2017-06-29T15:00:05.336Z,98035.13
2017-06-29T15:02:32.783Z,98026.73
2017-06-29T15:05:00.233Z,98036.33
2017-06-29T15:07:27.768Z,98048.09
2017-06-29T15:09:55.246Z,98052.00
2017-06-29T15:12:22.884Z,98036.08
2017-06-29T15:14:50.468Z,98062.00
2017-06-29T15:17:17.979Z,98056.20
2017-06-29T15:19:45.594Z,98052.55
2017-06-29T15:22:13.262Z,98073.91
2017-06-29T15:24:41.186Z,98063.36
2017-06-29T15:27:08.835Z,98077.31
2017-06-29T15:29:36.407Z,98077.70
2017-06-29T15:32:03.895Z,98070.66
2017-06-29T15:34:31.770Z,98066.61
2017-06-29T15:37:00.024Z,98072.16
2017-06-29T15:39:27.859Z,98079.06
2017-06-29T15:41:55.374Z,98076.62
2017-06-29T15:44:23.021Z,98077.45
2017-06-29T15:46:50.955Z,98097.03
2017-06-29T15:49:18.710Z,98083.52
2017-06-29T15:51:46.451Z,98083.67
2017-06-29T15:54:13.923Z,98080.16
2017-06-29T15:56:42.093Z,98080.16
2017-06-29T15:59:09.871Z,98083.93
2017-06-29T16:01:37.918Z,98084.47
2017-06-29T16:04:05.616Z,98096.37
2017-06-29T16:06:33.171Z,98078.13
2017-06-29T16:09:00.931Z,98085.83
2017-06-29T16:11:28.567Z,98085.02
2017-06-29T16:13:56.705Z,98090.58
2017-06-29T16:16:24.310Z,98103.40
2017-06-29T16:18:52.028Z,98095.17
2017-06-29T16:21:19.559Z,98101.39
2017-06-29T16:23:47.503Z,98081.92
2017-06-29T16:26:14.981Z,98096.64
2017-06-29T16:28:42.558Z,98093.53
2017-06-29T16:31:10.148Z,98104.23
2017-06-29T16:33:38.024Z,98108.73
2017-06-29T16:36:05.984Z,98121.92
2017-06-29T16:38:33.890Z,98111.43
2017-06-29T16:41:01.662Z,98118.19
2017-06-29T16:43:29.547Z,98118.70
2017-06-29T16:45:57.320Z,98115.59
2017-06-29T16:48:25.747Z,98112.89
2017-06-29T16:50:53.565Z,98128.68
2017-06-29T16:53:21.052Z,98124.22
2017-06-29T16:55:49.083Z,98126.66
2017-06-29T16:58:16.795Z,98128.56
2017-06-29T17:00:44.827Z,98133.28
2017-06-29T17:03:12.424Z,98136.53
2017-06-29T17:05:40.036Z,98135.72
2017-06-29T17:08:07.685Z,98133.57
2017-06-29T17:10:35.439Z,98135.03
2017-06-29T17:13:03.384Z,98148.84
2017-06-29T17:15:30.839Z,98149.64
2017-06-29T17:17:58.365Z,98153.30
2017-06-29T17:20:26.127Z,98159.10
2017-06-29T17:22:54.137Z,98163.70
2017-06-29T17:25:21.991Z,98165.86
2017-06-29T17:27:50.254Z,98164.66
2017-06-29T17:30:18.247Z,98167.77
2017-06-29T17:32:46.176Z,98172.22
2017-06-29T17:35:13.907Z,98171.93
2017-06-29T17:37:41.890Z,98166.52
2017-06-29T17:40:09.424Z,98172.22
2017-06-29T17:42:36.932Z,98168.56
2017-06-29T17:45:04.794Z,98174.38
2017-06-29T17:47:32.352Z,98173.27
2017-06-29T17:50:00.479Z,98179.48
2017-06-29T17:52:28.235Z,98189.34
2017-06-29T17:54:56.896Z,98197.98
2017-06-29T17:57:24.687Z,98194.72
2017-06-29T17:59:52.632Z,98195.11
2017-06-29T18:02:20.502Z,98198.47
2017-06-29T18:04:48.296Z,98192.41
2017-06-29T18:07:16.342Z,98199.80
2017-06-29T18:09:43.934Z,98197.34
2017-06-29T18:12:11.680Z,98201.14
2017-06-29T18:14:39.527Z,98197.88
2017-06-29T18:17:07.529Z,98211.34
2017-06-29T18:19:35.470Z,98210.53
2017-06-29T18:22:03.847Z,98210.28
2017-06-29T18:24:31.900Z,98215.39
2017-06-29T18:26:59.999Z,98213.09
2017-06-29T18:29:27.858Z,98216.46
2017-06-29T18:31:55.303Z,98211.85
2017-06-29T18:34:22.769Z,98217.35
2017-06-29T18:36:50.219Z,98215.75
2017-06-29T18:39:18.324Z,98218.70
2017-06-29T18:41:46.709Z,98222.20
2017-06-29T18:44:14.531Z,98220.29
2017-06-29T18:46:41.951Z,98227.33
2017-06-29T18:49:10.059Z,98226.52
2017-06-29T18:51:37.654Z,98237.17
2017-06-29T18:54:06.006Z,98235.76
2017-06-29T18:56:33.968Z,98234.34
2017-06-29T18:59:01.632Z,98238.95
2017-06-29T19:01:29.069Z,98249.33
2017-06-29T19:03:56.857Z,98245.92
2017-06-29T19:06:24.953Z,98252.04
2017-06-29T19:08:52.638Z,98248.23
2017-06-29T19:11:20.716Z,98248.20
2017-06-29T19:13:48.183Z,98251.05
2017-06-29T19:16:15.653Z,98250.61
2017-06-29T19:18:43.744Z,98252.12
2017-06-29T19:21:11.251Z,98258.31
2017-06-29T19:23:39.308Z,98253.19
2017-06-29T19:26:06.929Z,98259.23
2017-06-29T19:28:34.855Z,98258.66
2017-06-29T19:31:02.967Z,98263.91
2017-06-29T19:33:30.695Z,98262.80
2017-06-29T19:35:58.146Z,98263.91
2017-06-29T19:38:26.190Z,98259.84
2017-06-29T19:40:54.536Z,98258.30
2017-06-29T19:43:22.271Z,98252.20
2017-06-29T19:45:50.427Z,98252.35
2017-06-29T19:48:18.096Z,98252.58
2017-06-29T19:50:45.678Z,98263.25
2017-06-29T19:53:13.722Z,98256.36
2017-06-29T19:55:41.769Z,98262.28
2017-06-29T19:58:09.815Z,98263.32
2017-06-29T20:00:37.262Z,98277.60
2017-06-29T20:03:06.631Z,98265.85
2017-06-29T20:05:34.606Z,98273.79
2017-06-29T20:08:04.922Z,98284.30
2017-06-29T20:10:33.928Z,98283.52
2017-06-29T20:13:01.586Z,98282.81
2017-06-29T20:15:29.120Z,98285.97
2017-06-29T20:17:56.867Z,98291.92
2017-06-29T20:20:24.419Z,98291.92
2017-06-29T20:22:52.362Z,98296.52
2017-06-29T20:25:20.112Z,98298.95
2017-06-29T20:27:47.982Z,98297.95
2017-06-29T20:30:15.636Z,98299.39
2017-06-29T20:32:43.163Z,98306.11
2017-06-29T20:35:11.423Z,98305.88
2017-06-29T20:37:39.561Z,98310.55
2017-06-29T20:40:07.370Z,98302.05
2017-06-29T20:42:35.306Z,98310.68
2017-06-29T20:45:03.035Z,98304.31
2017-06-29T20:47:30.917Z,98305.66
2017-06-29T20:49:58.435Z,98310.58
2017-06-29T20:52:26.474Z,98316.76
2017-06-29T20:54:53.938Z,98321.38
2017-06-29T20:57:21.372Z,98323.64
2017-06-29T20:59:49.459Z,98329.25
2017-06-29T21:02:17.459Z,98334.99
2017-06-29T21:04:45.679Z,98339.25
2017-06-29T21:07:13.286Z,98341.46
2017-06-29T21:09:41.010Z,98344.19
2017-06-29T21:12:08.780Z,98344.91
2017-06-29T21:14:36.419Z,98345.14
2017-06-29T21:17:04.195Z,98347.11
2017-06-29T21:19:31.894Z,98350.55
2017-06-29T21:21:59.570Z,98347.31
2017-06-29T21:24:27.670Z,98349.51
